sensor_id;sensor_type;location;lat;lon;timestamp;P1;durP1;ratioP1;P2;durP2;ratioP2
13801;SDS011;6972;51.518;6.918;2023-06-19T00:01:52;7.38;;;3.10;;
13801;SDS011;6972;51.518;6.918;2023-06-19T00:04:18;4.78;;;2.85;;
13801;SDS011;6972;51.518;6.918;2023-06-19T00:06:44;9.23;;;3.13;;
13801;SDS011;6972;51.518;6.918;2023-06-19T00:09:10;3.13;;;2.60;;
13801;SDS011;6972;51.518;6.918;2023-06-19T00:11:36;3.53;;;3.00;;
13801;SDS011;6972;51.518;6.918;2023-06-19T00:14:02;3.95;;;3.15;;
13801;SDS011;6972;51.518;6.918;2023-06-19T00:16:28;3.45;;;2.88;;
13801;SDS011;6972;51.518;6.918;2023-06-19T00:18:54;4.25;;;2.80;;
13801;SDS011;6972;51.518;6.918;2023-06-19T00:21:24;2.95;;;2.65;;
13801;SDS011;6972;51.518;6.918;2023-06-19T00:23:50;3.00;;;2.70;;
13801;SDS011;6972;51.518;6.918;2023-06-19T00:26:16;3.33;;;2.67;;
13801;SDS011;6972;51.518;6.918;2023-06-19T00:28:42;3.55;;;3.05;;
13801;SDS011;6972;51.518;6.918;2023-06-19T00:31:10;4.68;;;2.90;;
13801;SDS011;6972;51.518;6.918;2023-06-19T00:33:39;3.13;;;2.70;;
13801;SDS011;6972;51.518;6.918;2023-06-19T00:36:11;4.63;;;2.88;;
13801;SDS011;6972;51.518;6.918;2023-06-19T00:38:38;3.45;;;3.15;;
13801;SDS011;6972;51.518;6.918;2023-06-19T00:41:04;5.13;;;2.70;;
13801;SDS011;6972;51.518;6.918;2023-06-19T00:43:31;4.22;;;2.95;;
13801;SDS011;6972;51.518;6.918;2023-06-19T00:45:57;3.45;;;3.08;;
13801;SDS011;6972;51.518;6.918;2023-06-19T00:48:23;5.60;;;3.35;;
13801;SDS011;6972;51.518;6.918;2023-06-19T00:50:50;3.78;;;3.00;;
13801;SDS011;6972;51.518;6.918;2023-06-19T00:53:17;4.60;;;3.13;;
13801;SDS011;6972;51.518;6.918;2023-06-19T00:55:43;3.67;;;3.05;;
13801;SDS011;6972;51.518;6.918;2023-06-19T00:58:10;5.82;;;3.20;;
13801;SDS011;6972;51.518;6.918;2023-06-19T01:00:36;3.38;;;2.80;;
13801;SDS011;6972;51.518;6.918;2023-06-19T01:03:02;4.63;;;3.00;;
13801;SDS011;6972;51.518;6.918;2023-06-19T01:05:28;3.13;;;2.72;;
13801;SDS011;6972;51.518;6.918;2023-06-19T01:10:24;3.08;;;2.78;;
13801;SDS011;6972;51.518;6.918;2023-06-19T01:12:52;3.65;;;3.20;;
13801;SDS011;6972;51.518;6.918;2023-06-19T01:15:20;3.10;;;2.80;;
13801;SDS011;6972;51.518;6.918;2023-06-19T01:17:48;2.90;;;2.55;;
13801;SDS011;6972;51.518;6.918;2023-06-19T01:20:14;3.78;;;3.03;;
13801;SDS011;6972;51.518;6.918;2023-06-19T01:22:40;3.08;;;2.78;;
13801;SDS011;6972;51.518;6.918;2023-06-19T01:25:09;3.50;;;3.20;;
13801;SDS011;6972;51.518;6.918;2023-06-19T01:27:36;3.20;;;2.90;;
13801;SDS011;6972;51.518;6.918;2023-06-19T01:30:03;2.92;;;2.58;;
13801;SDS011;6972;51.518;6.918;2023-06-19T01:35:15;3.97;;;3.40;;
13801;SDS011;6972;51.518;6.918;2023-06-19T01:37:42;3.90;;;3.00;;
13801;SDS011;6972;51.518;6.918;2023-06-19T01:40:10;3.13;;;2.80;;
13801;SDS011;6972;51.518;6.918;2023-06-19T01:42:37;3.10;;;2.80;;
13801;SDS011;6972;51.518;6.918;2023-06-19T01:45:04;4.07;;;3.30;;
13801;SDS011;6972;51.518;6.918;2023-06-19T01:47:31;3.40;;;3.10;;
13801;SDS011;6972;51.518;6.918;2023-06-19T01:49:57;3.40;;;2.95;;
13801;SDS011;6972;51.518;6.918;2023-06-19T01:52:23;5.90;;;3.30;;
13801;SDS011;6972;51.518;6.918;2023-06-19T01:54:50;4.05;;;2.70;;
13801;SDS011;6972;51.518;6.918;2023-06-19T01:57:16;4.15;;;3.10;;
13801;SDS011;6972;51.518;6.918;2023-06-19T01:59:43;3.33;;;2.70;;
13801;SDS011;6972;51.518;6.918;2023-06-19T02:02:09;3.38;;;3.00;;
13801;SDS011;6972;51.518;6.918;2023-06-19T02:04:36;3.33;;;3.03;;
13801;SDS011;6972;51.518;6.918;2023-06-19T02:07:02;3.55;;;2.80;;
13801;SDS011;6972;51.518;6.918;2023-06-19T02:09:28;3.08;;;2.78;;
13801;SDS011;6972;51.518;6.918;2023-06-19T02:11:54;3.95;;;3.28;;
13801;SDS011;6972;51.518;6.918;2023-06-19T02:14:20;3.38;;;2.70;;
13801;SDS011;6972;51.518;6.918;2023-06-19T02:16:46;3.05;;;2.75;;
13801;SDS011;6972;51.518;6.918;2023-06-19T02:19:12;3.70;;;2.80;;
13801;SDS011;6972;51.518;6.918;2023-06-19T02:21:38;4.10;;;2.88;;
13801;SDS011;6972;51.518;6.918;2023-06-19T02:24:05;3.35;;;2.72;;
13801;SDS011;6972;51.518;6.918;2023-06-19T02:26:34;3.05;;;2.75;;
13801;SDS011;6972;51.518;6.918;2023-06-19T02:29:00;4.22;;;2.60;;
13801;SDS011;6972;51.518;6.918;2023-06-19T02:31:26;3.30;;;3.00;;
13801;SDS011;6972;51.518;6.918;2023-06-19T02:33:52;3.60;;;3.17;;
13801;SDS011;6972;51.518;6.918;2023-06-19T02:36:18;4.10;;;2.78;;
13801;SDS011;6972;51.518;6.918;2023-06-19T02:38:45;3.55;;;3.10;;
13801;SDS011;6972;51.518;6.918;2023-06-19T02:41:11;3.22;;;2.92;;
13801;SDS011;6972;51.518;6.918;2023-06-19T02:43:38;3.45;;;2.90;;
13801;SDS011;6972;51.518;6.918;2023-06-19T02:46:05;4.82;;;3.10;;
13801;SDS011;6972;51.518;6.918;2023-06-19T02:48:31;3.20;;;2.90;;
13801;SDS011;6972;51.518;6.918;2023-06-19T02:50:57;3.30;;;2.90;;
13801;SDS011;6972;51.518;6.918;2023-06-19T02:53:23;3.38;;;2.92;;
13801;SDS011;6972;51.518;6.918;2023-06-19T02:55:49;3.95;;;3.08;;
13801;SDS011;6972;51.518;6.918;2023-06-19T02:58:16;4.57;;;3.00;;
13801;SDS011;6972;51.518;6.918;2023-06-19T03:00:42;4.55;;;3.38;;
13801;SDS011;6972;51.518;6.918;2023-06-19T03:03:08;5.20;;;2.90;;
13801;SDS011;6972;51.518;6.918;2023-06-19T03:05:34;3.72;;;3.13;;
13801;SDS011;6972;51.518;6.918;2023-06-19T03:08:00;5.40;;;3.00;;
13801;SDS011;6972;51.518;6.918;2023-06-19T03:10:26;5.10;;;3.05;;
13801;SDS011;6972;51.518;6.918;2023-06-19T03:12:52;4.03;;;3.30;;
13801;SDS011;6972;51.518;6.918;2023-06-19T03:15:18;4.10;;;3.25;;
13801;SDS011;6972;51.518;6.918;2023-06-19T03:17:44;5.30;;;3.35;;
13801;SDS011;6972;51.518;6.918;2023-06-19T03:20:10;4.22;;;3.00;;
13801;SDS011;6972;51.518;6.918;2023-06-19T03:22:38;3.20;;;2.90;;
13801;SDS011;6972;51.518;6.918;2023-06-19T03:25:04;3.25;;;2.95;;
13801;SDS011;6972;51.518;6.918;2023-06-19T03:27:31;3.65;;;3.25;;
13801;SDS011;6972;51.518;6.918;2023-06-19T03:30:00;4.05;;;3.28;;
13801;SDS011;6972;51.518;6.918;2023-06-19T03:32:26;3.60;;;2.90;;
13801;SDS011;6972;51.518;6.918;2023-06-19T03:34:52;5.00;;;3.38;;
13801;SDS011;6972;51.518;6.918;2023-06-19T03:37:18;5.32;;;3.03;;
13801;SDS011;6972;51.518;6.918;2023-06-19T03:39:44;3.75;;;3.35;;
13801;SDS011;6972;51.518;6.918;2023-06-19T03:42:10;4.47;;;3.17;;
13801;SDS011;6972;51.518;6.918;2023-06-19T03:44:36;4.00;;;3.05;;
13801;SDS011;6972;51.518;6.918;2023-06-19T03:47:02;3.92;;;2.78;;
13801;SDS011;6972;51.518;6.918;2023-06-19T03:49:28;2.70;;;2.40;;
13801;SDS011;6972;51.518;6.918;2023-06-19T03:51:54;3.72;;;2.22;;
13801;SDS011;6972;51.518;6.918;2023-06-19T03:54:20;3.17;;;2.65;;
13801;SDS011;6972;51.518;6.918;2023-06-19T03:56:46;2.38;;;2.17;;
13801;SDS011;6972;51.518;6.918;2023-06-19T03:59:13;2.10;;;1.90;;
13801;SDS011;6972;51.518;6.918;2023-06-19T04:01:39;12.43;;;2.20;;
13801;SDS011;6972;51.518;6.918;2023-06-19T04:04:05;3.47;;;2.40;;
13801;SDS011;6972;51.518;6.918;2023-06-19T04:06:31;2.60;;;2.38;;
13801;SDS011;6972;51.518;6.918;2023-06-19T04:08:57;3.13;;;2.50;;
13801;SDS011;6972;51.518;6.918;2023-06-19T04:11:23;2.65;;;2.40;;
13801;SDS011;6972;51.518;6.918;2023-06-19T04:13:49;3.08;;;2.28;;
13801;SDS011;6972;51.518;6.918;2023-06-19T04:16:15;4.40;;;2.58;;
13801;SDS011;6972;51.518;6.918;2023-06-19T04:18:42;3.03;;;2.20;;
13801;SDS011;6972;51.518;6.918;2023-06-19T04:21:08;4.00;;;2.22;;
13801;SDS011;6972;51.518;6.918;2023-06-19T04:23:34;4.88;;;2.50;;
13801;SDS011;6972;51.518;6.918;2023-06-19T04:26:00;3.53;;;2.38;;
13801;SDS011;6972;51.518;6.918;2023-06-19T04:28:27;2.58;;;2.30;;
13801;SDS011;6972;51.518;6.918;2023-06-19T04:30:53;3.40;;;2.40;;
13801;SDS011;6972;51.518;6.918;2023-06-19T04:33:25;4.57;;;2.40;;
13801;SDS011;6972;51.518;6.918;2023-06-19T04:35:51;4.38;;;2.70;;
13801;SDS011;6972;51.518;6.918;2023-06-19T04:38:17;5.03;;;2.65;;
13801;SDS011;6972;51.518;6.918;2023-06-19T04:40:43;3.60;;;2.50;;
13801;SDS011;6972;51.518;6.918;2023-06-19T04:43:09;3.75;;;2.72;;
13801;SDS011;6972;51.518;6.918;2023-06-19T04:45:35;2.97;;;2.60;;
13801;SDS011;6972;51.518;6.918;2023-06-19T04:48:01;3.45;;;2.45;;
13801;SDS011;6972;51.518;6.918;2023-06-19T04:50:28;3.47;;;2.40;;
13801;SDS011;6972;51.518;6.918;2023-06-19T04:52:54;4.53;;;2.35;;
13801;SDS011;6972;51.518;6.918;2023-06-19T04:55:20;4.28;;;2.83;;
13801;SDS011;6972;51.518;6.918;2023-06-19T04:57:46;3.38;;;2.30;;
13801;SDS011;6972;51.518;6.918;2023-06-19T05:00:12;4.30;;;2.42;;
13801;SDS011;6972;51.518;6.918;2023-06-19T05:02:39;3.50;;;2.70;;
13801;SDS011;6972;51.518;6.918;2023-06-19T05:05:08;2.63;;;2.38;;
13801;SDS011;6972;51.518;6.918;2023-06-19T05:07:34;9.20;;;2.30;;
13801;SDS011;6972;51.518;6.918;2023-06-19T05:10:00;2.78;;;2.13;;
13801;SDS011;6972;51.518;6.918;2023-06-19T05:12:27;2.67;;;2.15;;
13801;SDS011;6972;51.518;6.918;2023-06-19T05:14:53;3.60;;;2.22;;
13801;SDS011;6972;51.518;6.918;2023-06-19T05:17:19;4.70;;;2.70;;
13801;SDS011;6972;51.518;6.918;2023-06-19T05:19:45;5.60;;;2.25;;
13801;SDS011;6972;51.518;6.918;2023-06-19T05:22:11;4.40;;;2.63;;
13801;SDS011;6972;51.518;6.918;2023-06-19T05:24:37;4.40;;;2.90;;
13801;SDS011;6972;51.518;6.918;2023-06-19T05:27:03;4.70;;;2.40;;
13801;SDS011;6972;51.518;6.918;2023-06-19T05:29:29;3.40;;;2.50;;
13801;SDS011;6972;51.518;6.918;2023-06-19T05:31:56;3.15;;;2.35;;
13801;SDS011;6972;51.518;6.918;2023-06-19T05:34:22;5.32;;;2.70;;
13801;SDS011;6972;51.518;6.918;2023-06-19T05:36:48;2.90;;;2.50;;
13801;SDS011;6972;51.518;6.918;2023-06-19T05:39:14;5.53;;;2.42;;
13801;SDS011;6972;51.518;6.918;2023-06-19T05:41:40;3.72;;;2.33;;
13801;SDS011;6972;51.518;6.918;2023-06-19T05:44:06;5.13;;;2.30;;
13801;SDS011;6972;51.518;6.918;2023-06-19T05:46:33;2.97;;;2.47;;
13801;SDS011;6972;51.518;6.918;2023-06-19T05:49:00;2.60;;;2.25;;
13801;SDS011;6972;51.518;6.918;2023-06-19T05:51:26;2.70;;;2.38;;
13801;SDS011;6972;51.518;6.918;2023-06-19T05:53:52;2.72;;;2.50;;
13801;SDS011;6972;51.518;6.918;2023-06-19T05:56:18;4.07;;;2.25;;
13801;SDS011;6972;51.518;6.918;2023-06-19T05:58:44;4.22;;;2.20;;
13801;SDS011;6972;51.518;6.918;2023-06-19T06:01:10;4.55;;;2.20;;
13801;SDS011;6972;51.518;6.918;2023-06-19T06:03:36;3.15;;;2.25;;
13801;SDS011;6972;51.518;6.918;2023-06-19T06:06:02;3.03;;;2.10;;
13801;SDS011;6972;51.518;6.918;2023-06-19T06:08:29;9.65;;;1.98;;
13801;SDS011;6972;51.518;6.918;2023-06-19T06:10:55;2.03;;;1.83;;
13801;SDS011;6972;51.518;6.918;2023-06-19T06:13:21;4.10;;;1.90;;
13801;SDS011;6972;51.518;6.918;2023-06-19T06:15:47;2.38;;;1.80;;
13801;SDS011;6972;51.518;6.918;2023-06-19T06:18:13;3.08;;;1.90;;
13801;SDS011;6972;51.518;6.918;2023-06-19T06:20:39;2.67;;;1.90;;
13801;SDS011;6972;51.518;6.918;2023-06-19T06:23:05;2.17;;;1.98;;
13801;SDS011;6972;51.518;6.918;2023-06-19T06:25:31;2.25;;;1.80;;
13801;SDS011;6972;51.518;6.918;2023-06-19T06:27:57;3.90;;;1.90;;
13801;SDS011;6972;51.518;6.918;2023-06-19T06:30:24;3.75;;;1.73;;
13801;SDS011;6972;51.518;6.918;2023-06-19T06:32:50;3.67;;;2.03;;
13801;SDS011;6972;51.518;6.918;2023-06-19T06:35:16;3.53;;;1.92;;
13801;SDS011;6972;51.518;6.918;2023-06-19T06:37:42;1.90;;;1.70;;
13801;SDS011;6972;51.518;6.918;2023-06-19T06:40:11;2.70;;;2.03;;
13801;SDS011;6972;51.518;6.918;2023-06-19T06:42:37;2.05;;;1.85;;
13801;SDS011;6972;51.518;6.918;2023-06-19T06:45:06;2.72;;;2.05;;
13801;SDS011;6972;51.518;6.918;2023-06-19T06:47:34;4.00;;;1.90;;
13801;SDS011;6972;51.518;6.918;2023-06-19T06:50:00;4.35;;;2.10;;
13801;SDS011;6972;51.518;6.918;2023-06-19T06:52:26;7.10;;;2.08;;
13801;SDS011;6972;51.518;6.918;2023-06-19T06:54:53;5.45;;;2.05;;
13801;SDS011;6972;51.518;6.918;2023-06-19T06:57:19;3.53;;;2.25;;
13801;SDS011;6972;51.518;6.918;2023-06-19T06:59:45;6.30;;;2.40;;
13801;SDS011;6972;51.518;6.918;2023-06-19T07:02:11;3.45;;;2.10;;
13801;SDS011;6972;51.518;6.918;2023-06-19T07:04:37;2.38;;;1.70;;
13801;SDS011;6972;51.518;6.918;2023-06-19T07:07:03;3.80;;;2.10;;
13801;SDS011;6972;51.518;6.918;2023-06-19T07:09:30;2.63;;;1.90;;
13801;SDS011;6972;51.518;6.918;2023-06-19T07:11:59;2.92;;;2.00;;
13801;SDS011;6972;51.518;6.918;2023-06-19T07:14:29;3.40;;;1.92;;
13801;SDS011;6972;51.518;6.918;2023-06-19T07:16:55;2.47;;;1.88;;
13801;SDS011;6972;51.518;6.918;2023-06-19T07:19:21;2.55;;;2.00;;
13801;SDS011;6972;51.518;6.918;2023-06-19T07:21:49;3.03;;;2.25;;
13801;SDS011;6972;51.518;6.918;2023-06-19T07:24:15;3.45;;;1.88;;
13801;SDS011;6972;51.518;6.918;2023-06-19T07:26:42;6.18;;;1.90;;
13801;SDS011;6972;51.518;6.918;2023-06-19T07:29:08;2.70;;;1.77;;
13801;SDS011;6972;51.518;6.918;2023-06-19T07:31:34;8.95;;;2.17;;
13801;SDS011;6972;51.518;6.918;2023-06-19T07:34:00;3.00;;;1.90;;
13801;SDS011;6972;51.518;6.918;2023-06-19T07:36:26;2.33;;;1.88;;
13801;SDS011;6972;51.518;6.918;2023-06-19T07:38:52;3.92;;;2.08;;
13801;SDS011;6972;51.518;6.918;2023-06-19T07:41:18;3.85;;;2.20;;
13801;SDS011;6972;51.518;6.918;2023-06-19T07:43:44;3.50;;;2.20;;
13801;SDS011;6972;51.518;6.918;2023-06-19T07:46:10;2.83;;;2.00;;
13801;SDS011;6972;51.518;6.918;2023-06-19T07:48:36;3.22;;;1.90;;
13801;SDS011;6972;51.518;6.918;2023-06-19T07:51:02;2.35;;;1.67;;
13801;SDS011;6972;51.518;6.918;2023-06-19T07:53:28;6.57;;;2.03;;
13801;SDS011;6972;51.518;6.918;2023-06-19T07:55:54;5.00;;;2.00;;
13801;SDS011;6972;51.518;6.918;2023-06-19T07:58:20;7.85;;;1.92;;
13801;SDS011;6972;51.518;6.918;2023-06-19T08:00:47;6.63;;;2.00;;
13801;SDS011;6972;51.518;6.918;2023-06-19T08:03:13;3.50;;;2.20;;
13801;SDS011;6972;51.518;6.918;2023-06-19T08:05:39;3.10;;;2.10;;
13801;SDS011;6972;51.518;6.918;2023-06-19T08:08:05;3.30;;;2.17;;
13801;SDS011;6972;51.518;6.918;2023-06-19T08:10:31;6.45;;;2.08;;
13801;SDS011;6972;51.518;6.918;2023-06-19T08:12:57;4.25;;;1.80;;
13801;SDS011;6972;51.518;6.918;2023-06-19T08:15:23;1.70;;;1.60;;
13801;SDS011;6972;51.518;6.918;2023-06-19T08:17:50;4.15;;;2.05;;
13801;SDS011;6972;51.518;6.918;2023-06-19T08:20:16;4.60;;;2.17;;
13801;SDS011;6972;51.518;6.918;2023-06-19T08:22:42;5.22;;;1.95;;
13801;SDS011;6972;51.518;6.918;2023-06-19T08:25:08;3.90;;;1.98;;
13801;SDS011;6972;51.518;6.918;2023-06-19T08:27:34;3.97;;;2.15;;
13801;SDS011;6972;51.518;6.918;2023-06-19T08:30:00;3.28;;;1.88;;
13801;SDS011;6972;51.518;6.918;2023-06-19T08:32:26;3.03;;;1.60;;
13801;SDS011;6972;51.518;6.918;2023-06-19T08:34:52;4.68;;;1.80;;
13801;SDS011;6972;51.518;6.918;2023-06-19T08:37:18;2.40;;;1.60;;
13801;SDS011;6972;51.518;6.918;2023-06-19T08:39:44;3.13;;;2.00;;
13801;SDS011;6972;51.518;6.918;2023-06-19T08:42:10;2.95;;;1.58;;
13801;SDS011;6972;51.518;6.918;2023-06-19T08:44:36;2.63;;;1.60;;
13801;SDS011;6972;51.518;6.918;2023-06-19T08:47:03;6.45;;;1.92;;
13801;SDS011;6972;51.518;6.918;2023-06-19T08:49:29;1.65;;;1.50;;
13801;SDS011;6972;51.518;6.918;2023-06-19T08:51:56;2.33;;;1.60;;
13801;SDS011;6972;51.518;6.918;2023-06-19T08:54:22;5.03;;;1.88;;
13801;SDS011;6972;51.518;6.918;2023-06-19T08:56:50;3.20;;;1.60;;
13801;SDS011;6972;51.518;6.918;2023-06-19T08:59:18;3.15;;;1.80;;
13801;SDS011;6972;51.518;6.918;2023-06-19T09:01:48;3.65;;;1.90;;
13801;SDS011;6972;51.518;6.918;2023-06-19T09:04:26;3.40;;;1.90;;
13801;SDS011;6972;51.518;6.918;2023-06-19T09:06:53;3.63;;;1.85;;
13801;SDS011;6972;51.518;6.918;2023-06-19T09:09:20;3.45;;;1.77;;
13801;SDS011;6972;51.518;6.918;2023-06-19T09:14:43;3.60;;;2.13;;
13801;SDS011;6972;51.518;6.918;2023-06-19T09:17:10;3.17;;;1.90;;
13801;SDS011;6972;51.518;6.918;2023-06-19T09:19:37;2.38;;;1.90;;
13801;SDS011;6972;51.518;6.918;2023-06-19T09:22:07;4.82;;;2.20;;
13801;SDS011;6972;51.518;6.918;2023-06-19T09:27:10;2.35;;;2.08;;
13801;SDS011;6972;51.518;6.918;2023-06-19T09:29:42;4.47;;;2.60;;
13801;SDS011;6972;51.518;6.918;2023-06-19T09:34:40;4.28;;;2.03;;
13801;SDS011;6972;51.518;6.918;2023-06-19T09:37:06;4.13;;;2.00;;
13801;SDS011;6972;51.518;6.918;2023-06-19T09:39:33;3.55;;;2.10;;
13801;SDS011;6972;51.518;6.918;2023-06-19T09:42:00;3.38;;;2.10;;
13801;SDS011;6972;51.518;6.918;2023-06-19T09:44:26;3.33;;;1.70;;
13801;SDS011;6972;51.518;6.918;2023-06-19T09:46:53;2.85;;;1.90;;
13801;SDS011;6972;51.518;6.918;2023-06-19T09:49:20;2.83;;;2.10;;
13801;SDS011;6972;51.518;6.918;2023-06-19T09:51:48;4.65;;;2.38;;
13801;SDS011;6972;51.518;6.918;2023-06-19T09:54:16;5.03;;;2.20;;
13801;SDS011;6972;51.518;6.918;2023-06-19T09:56:42;5.60;;;2.40;;
13801;SDS011;6972;51.518;6.918;2023-06-19T09:59:12;2.67;;;2.20;;
13801;SDS011;6972;51.518;6.918;2023-06-19T10:01:39;3.90;;;2.42;;
13801;SDS011;6972;51.518;6.918;2023-06-19T10:04:06;3.08;;;2.28;;
13801;SDS011;6972;51.518;6.918;2023-06-19T10:06:32;4.10;;;2.10;;
13801;SDS011;6972;51.518;6.918;2023-06-19T10:09:05;3.80;;;2.45;;
13801;SDS011;6972;51.518;6.918;2023-06-19T10:11:45;2.40;;;2.20;;
13801;SDS011;6972;51.518;6.918;2023-06-19T10:14:12;4.40;;;2.45;;
13801;SDS011;6972;51.518;6.918;2023-06-19T10:16:38;5.15;;;2.42;;
13801;SDS011;6972;51.518;6.918;2023-06-19T10:19:15;4.10;;;2.35;;
13801;SDS011;6972;51.518;6.918;2023-06-19T10:21:45;3.70;;;2.70;;
13801;SDS011;6972;51.518;6.918;2023-06-19T10:24:15;3.50;;;2.40;;
13801;SDS011;6972;51.518;6.918;2023-06-19T10:26:43;2.90;;;2.28;;
13801;SDS011;6972;51.518;6.918;2023-06-19T10:29:13;4.10;;;2.63;;
13801;SDS011;6972;51.518;6.918;2023-06-19T10:31:39;6.72;;;2.60;;
13801;SDS011;6972;51.518;6.918;2023-06-19T10:34:05;3.47;;;2.70;;
13801;SDS011;6972;51.518;6.918;2023-06-19T10:36:31;3.25;;;2.33;;
13801;SDS011;6972;51.518;6.918;2023-06-19T10:38:58;3.35;;;2.42;;
13801;SDS011;6972;51.518;6.918;2023-06-19T10:41:24;4.00;;;2.40;;
13801;SDS011;6972;51.518;6.918;2023-06-19T10:43:59;9.20;;;2.60;;
13801;SDS011;6972;51.518;6.918;2023-06-19T10:46:30;4.78;;;2.60;;
13801;SDS011;6972;51.518;6.918;2023-06-19T10:49:00;7.63;;;2.70;;
13801;SDS011;6972;51.518;6.918;2023-06-19T10:51:29;3.55;;;2.60;;
13801;SDS011;6972;51.518;6.918;2023-06-19T10:53:55;5.82;;;2.90;;
13801;SDS011;6972;51.518;6.918;2023-06-19T10:56:22;5.07;;;2.83;;
13801;SDS011;6972;51.518;6.918;2023-06-19T10:58:56;5.50;;;2.75;;
13801;SDS011;6972;51.518;6.918;2023-06-19T11:01:22;3.03;;;2.60;;
13801;SDS011;6972;51.518;6.918;2023-06-19T11:03:48;5.10;;;2.67;;
13801;SDS011;6972;51.518;6.918;2023-06-19T11:06:19;4.10;;;3.00;;
13801;SDS011;6972;51.518;6.918;2023-06-19T11:08:50;7.70;;;3.25;;
13801;SDS011;6972;51.518;6.918;2023-06-19T11:11:19;7.15;;;2.78;;
13801;SDS011;6972;51.518;6.918;2023-06-19T11:13:45;4.72;;;3.00;;
13801;SDS011;6972;51.518;6.918;2023-06-19T11:16:14;3.10;;;2.63;;
13801;SDS011;6972;51.518;6.918;2023-06-19T11:18:40;3.35;;;2.80;;
13801;SDS011;6972;51.518;6.918;2023-06-19T11:21:06;5.03;;;3.00;;
13801;SDS011;6972;51.518;6.918;2023-06-19T11:23:35;4.47;;;3.28;;
13801;SDS011;6972;51.518;6.918;2023-06-19T11:26:02;3.35;;;2.60;;
13801;SDS011;6972;51.518;6.918;2023-06-19T11:28:28;12.82;;;3.00;;
13801;SDS011;6972;51.518;6.918;2023-06-19T11:30:58;4.13;;;3.13;;
13801;SDS011;6972;51.518;6.918;2023-06-19T11:33:24;3.53;;;2.90;;
13801;SDS011;6972;51.518;6.918;2023-06-19T11:35:51;6.03;;;3.42;;
13801;SDS011;6972;51.518;6.918;2023-06-19T11:38:21;4.63;;;3.08;;
13801;SDS011;6972;51.518;6.918;2023-06-19T11:40:47;5.53;;;3.58;;
13801;SDS011;6972;51.518;6.918;2023-06-19T11:43:26;7.25;;;3.45;;
13801;SDS011;6972;51.518;6.918;2023-06-19T11:45:53;5.55;;;3.17;;
13801;SDS011;6972;51.518;6.918;2023-06-19T11:48:25;3.38;;;3.08;;
13801;SDS011;6972;51.518;6.918;2023-06-19T11:50:52;4.47;;;3.40;;
13801;SDS011;6972;51.518;6.918;2023-06-19T11:53:22;6.18;;;3.45;;
13801;SDS011;6972;51.518;6.918;2023-06-19T11:55:48;7.32;;;3.50;;
13801;SDS011;6972;51.518;6.918;2023-06-19T11:58:15;8.10;;;3.70;;
13801;SDS011;6972;51.518;6.918;2023-06-19T12:00:41;4.78;;;3.40;;
13801;SDS011;6972;51.518;6.918;2023-06-19T12:03:08;9.98;;;3.28;;
13801;SDS011;6972;51.518;6.918;2023-06-19T12:05:34;3.80;;;3.42;;
13801;SDS011;6972;51.518;6.918;2023-06-19T12:08:01;3.35;;;3.05;;
13801;SDS011;6972;51.518;6.918;2023-06-19T12:10:27;6.20;;;3.35;;
13801;SDS011;6972;51.518;6.918;2023-06-19T12:12:53;5.38;;;2.92;;
13801;SDS011;6972;51.518;6.918;2023-06-19T12:15:20;4.90;;;3.25;;
13801;SDS011;6972;51.518;6.918;2023-06-19T12:17:46;6.25;;;3.15;;
13801;SDS011;6972;51.518;6.918;2023-06-19T12:20:12;5.15;;;3.30;;
13801;SDS011;6972;51.518;6.918;2023-06-19T12:22:39;5.55;;;2.78;;
13801;SDS011;6972;51.518;6.918;2023-06-19T12:25:05;4.07;;;3.13;;
13801;SDS011;6972;51.518;6.918;2023-06-19T12:27:35;4.32;;;3.25;;
13801;SDS011;6972;51.518;6.918;2023-06-19T12:30:01;3.88;;;3.17;;
13801;SDS011;6972;51.518;6.918;2023-06-19T12:32:27;4.05;;;2.97;;
13801;SDS011;6972;51.518;6.918;2023-06-19T12:34:53;3.72;;;3.13;;
13801;SDS011;6972;51.518;6.918;2023-06-19T12:37:20;5.45;;;3.60;;
13801;SDS011;6972;51.518;6.918;2023-06-19T12:39:46;4.05;;;3.10;;
13801;SDS011;6972;51.518;6.918;2023-06-19T12:42:12;4.20;;;3.13;;
13801;SDS011;6972;51.518;6.918;2023-06-19T12:44:39;7.20;;;2.97;;
13801;SDS011;6972;51.518;6.918;2023-06-19T12:47:05;5.60;;;3.40;;
13801;SDS011;6972;51.518;6.918;2023-06-19T12:49:34;4.32;;;2.80;;
13801;SDS011;6972;51.518;6.918;2023-06-19T12:52:00;3.67;;;2.88;;
13801;SDS011;6972;51.518;6.918;2023-06-19T12:54:26;4.38;;;3.15;;
13801;SDS011;6972;51.518;6.918;2023-06-19T12:56:53;3.95;;;3.42;;
13801;SDS011;6972;51.518;6.918;2023-06-19T12:59:19;3.92;;;2.90;;
13801;SDS011;6972;51.518;6.918;2023-06-19T13:01:45;4.68;;;3.53;;
13801;SDS011;6972;51.518;6.918;2023-06-19T13:04:12;7.28;;;2.97;;
13801;SDS011;6972;51.518;6.918;2023-06-19T13:06:38;4.78;;;3.00;;
13801;SDS011;6972;51.518;6.918;2023-06-19T13:09:05;4.88;;;3.30;;
13801;SDS011;6972;51.518;6.918;2023-06-19T13:11:34;5.50;;;2.80;;
13801;SDS011;6972;51.518;6.918;2023-06-19T13:14:00;3.70;;;3.30;;
13801;SDS011;6972;51.518;6.918;2023-06-19T13:16:26;3.72;;;3.20;;
13801;SDS011;6972;51.518;6.918;2023-06-19T13:18:52;4.22;;;3.55;;
13801;SDS011;6972;51.518;6.918;2023-06-19T13:21:18;4.75;;;3.45;;
13801;SDS011;6972;51.518;6.918;2023-06-19T13:23:45;5.35;;;3.03;;
13801;SDS011;6972;51.518;6.918;2023-06-19T13:26:13;5.75;;;3.17;;
13801;SDS011;6972;51.518;6.918;2023-06-19T13:28:40;5.18;;;3.28;;
13801;SDS011;6972;51.518;6.918;2023-06-19T13:31:06;5.20;;;3.03;;
13801;SDS011;6972;51.518;6.918;2023-06-19T13:33:32;4.30;;;3.40;;
13801;SDS011;6972;51.518;6.918;2023-06-19T13:35:58;3.53;;;3.13;;
13801;SDS011;6972;51.518;6.918;2023-06-19T13:38:24;4.03;;;2.90;;
13801;SDS011;6972;51.518;6.918;2023-06-19T13:40:50;5.28;;;2.70;;
13801;SDS011;6972;51.518;6.918;2023-06-19T13:43:16;6.35;;;3.20;;
13801;SDS011;6972;51.518;6.918;2023-06-19T13:45:42;3.75;;;3.28;;
13801;SDS011;6972;51.518;6.918;2023-06-19T13:48:08;5.43;;;3.25;;
13801;SDS011;6972;51.518;6.918;2023-06-19T13:50:34;5.97;;;3.10;;
13801;SDS011;6972;51.518;6.918;2023-06-19T13:53:01;5.25;;;3.13;;
13801;SDS011;6972;51.518;6.918;2023-06-19T13:55:27;5.30;;;2.97;;
13801;SDS011;6972;51.518;6.918;2023-06-19T13:57:53;5.13;;;3.45;;
13801;SDS011;6972;51.518;6.918;2023-06-19T14:00:19;3.15;;;2.70;;
13801;SDS011;6972;51.518;6.918;2023-06-19T14:02:45;5.00;;;2.47;;
13801;SDS011;6972;51.518;6.918;2023-06-19T14:05:12;4.43;;;3.15;;
13801;SDS011;6972;51.518;6.918;2023-06-19T14:07:41;4.38;;;3.05;;
13801;SDS011;6972;51.518;6.918;2023-06-19T14:10:07;3.03;;;2.45;;
13801;SDS011;6972;51.518;6.918;2023-06-19T14:12:34;3.13;;;2.80;;
13801;SDS011;6972;51.518;6.918;2023-06-19T14:15:00;2.97;;;2.50;;
13801;SDS011;6972;51.518;6.918;2023-06-19T14:17:26;3.45;;;2.88;;
13801;SDS011;6972;51.518;6.918;2023-06-19T14:19:52;3.20;;;2.75;;
13801;SDS011;6972;51.518;6.918;2023-06-19T14:22:20;4.03;;;3.22;;
13801;SDS011;6972;51.518;6.918;2023-06-19T14:24:46;4.65;;;3.03;;
13801;SDS011;6972;51.518;6.918;2023-06-19T14:27:12;5.05;;;3.15;;
13801;SDS011;6972;51.518;6.918;2023-06-19T14:29:39;4.25;;;3.10;;
13801;SDS011;6972;51.518;6.918;2023-06-19T14:32:05;4.07;;;3.08;;
13801;SDS011;6972;51.518;6.918;2023-06-19T14:34:31;3.53;;;2.90;;
13801;SDS011;6972;51.518;6.918;2023-06-19T14:36:57;3.78;;;2.92;;
13801;SDS011;6972;51.518;6.918;2023-06-19T14:39:23;7.40;;;4.10;;
13801;SDS011;6972;51.518;6.918;2023-06-19T14:41:49;5.32;;;3.40;;
13801;SDS011;6972;51.518;6.918;2023-06-19T14:44:15;3.92;;;3.05;;
13801;SDS011;6972;51.518;6.918;2023-06-19T14:46:42;11.38;;;5.40;;
13801;SDS011;6972;51.518;6.918;2023-06-19T14:49:11;3.40;;;3.10;;
13801;SDS011;6972;51.518;6.918;2023-06-19T14:51:37;9.73;;;4.90;;
13801;SDS011;6972;51.518;6.918;2023-06-19T14:54:04;10.23;;;4.40;;
13801;SDS011;6972;51.518;6.918;2023-06-19T14:56:30;6.10;;;3.60;;
13801;SDS011;6972;51.518;6.918;2023-06-19T14:58:58;8.32;;;3.67;;
13801;SDS011;6972;51.518;6.918;2023-06-19T15:01:25;7.15;;;2.88;;
13801;SDS011;6972;51.518;6.918;2023-06-19T15:03:51;6.05;;;2.70;;
13801;SDS011;6972;51.518;6.918;2023-06-19T15:06:17;3.95;;;2.80;;
13801;SDS011;6972;51.518;6.918;2023-06-19T15:08:43;5.85;;;3.15;;
13801;SDS011;6972;51.518;6.918;2023-06-19T15:11:10;4.38;;;3.05;;